sensor_id;sensor_type;location;lat;lon;timestamp;P1;durP1;ratioP1;P2;durP2;ratioP2
69621;SDS011;56841;55.964;37.674;2023-07-08T00:01:18;16.38;;;10.40;;
69621;SDS011;56841;55.964;37.674;2023-07-08T00:03:45;17.42;;;10.40;;
69621;SDS011;56841;55.964;37.674;2023-07-08T00:08:43;18.75;;;10.68;;
69621;SDS011;56841;55.964;37.674;2023-07-08T00:11:12;17.77;;;11.00;;
69621;SDS011;56841;55.964;37.674;2023-07-08T00:13:39;18.75;;;11.63;;
69621;SDS011;56841;55.964;37.674;2023-07-08T00:16:08;20.15;;;11.90;;
69621;SDS011;56841;55.964;37.674;2023-07-08T00:18:36;16.23;;;10.43;;
69621;SDS011;56841;55.964;37.674;2023-07-08T00:21:04;17.75;;;10.73;;
69621;SDS011;56841;55.964;37.674;2023-07-08T00:23:34;17.75;;;9.70;;
69621;SDS011;56841;55.964;37.674;2023-07-08T00:26:01;16.55;;;10.82;;
69621;SDS011;56841;55.964;37.674;2023-07-08T00:28:27;19.83;;;10.50;;
69621;SDS011;56841;55.964;37.674;2023-07-08T00:30:53;16.73;;;10.80;;
69621;SDS011;56841;55.964;37.674;2023-07-08T00:33:20;18.80;;;10.48;;
69621;SDS011;56841;55.964;37.674;2023-07-08T00:35:46;15.25;;;9.98;;
69621;SDS011;56841;55.964;37.674;2023-07-08T00:38:22;16.80;;;9.93;;
69621;SDS011;56841;55.964;37.674;2023-07-08T00:43:38;17.30;;;9.13;;
69621;SDS011;56841;55.964;37.674;2023-07-08T00:51:35;15.90;;;9.18;;
69621;SDS011;56841;55.964;37.674;2023-07-08T00:54:11;18.40;;;10.13;;
69621;SDS011;56841;55.964;37.674;2023-07-08T01:01:47;17.75;;;9.63;;
69621;SDS011;56841;55.964;37.674;2023-07-08T01:04:24;19.13;;;10.68;;
69621;SDS011;56841;55.964;37.674;2023-07-08T01:06:58;17.50;;;9.07;;
69621;SDS011;56841;55.964;37.674;2023-07-08T01:11:56;17.33;;;9.73;;
69621;SDS011;56841;55.964;37.674;2023-07-08T01:14:29;14.50;;;8.70;;
69621;SDS011;56841;55.964;37.674;2023-07-08T01:16:59;17.02;;;10.07;;
69621;SDS011;56841;55.964;37.674;2023-07-08T01:19:26;16.63;;;9.75;;
69621;SDS011;56841;55.964;37.674;2023-07-08T01:22:03;17.85;;;9.80;;
69621;SDS011;56841;55.964;37.674;2023-07-08T01:26:58;15.30;;;8.90;;
69621;SDS011;56841;55.964;37.674;2023-07-08T01:29:27;14.13;;;8.88;;
69621;SDS011;56841;55.964;37.674;2023-07-08T01:31:54;14.77;;;9.38;;
69621;SDS011;56841;55.964;37.674;2023-07-08T01:34:21;16.45;;;10.38;;
69621;SDS011;56841;55.964;37.674;2023-07-08T01:36:48;16.50;;;9.13;;
69621;SDS011;56841;55.964;37.674;2023-07-08T01:39:18;13.65;;;7.53;;
69621;SDS011;56841;55.964;37.674;2023-07-08T01:41:45;13.52;;;7.78;;
69621;SDS011;56841;55.964;37.674;2023-07-08T01:46:47;15.55;;;8.90;;
69621;SDS011;56841;55.964;37.674;2023-07-08T01:49:14;15.88;;;9.20;;
69621;SDS011;56841;55.964;37.674;2023-07-08T01:51:40;15.93;;;8.07;;
69621;SDS011;56841;55.964;37.674;2023-07-08T01:54:06;16.73;;;9.68;;
69621;SDS011;56841;55.964;37.674;2023-07-08T01:56:31;17.90;;;11.20;;
69621;SDS011;56841;55.964;37.674;2023-07-08T01:58:57;18.98;;;11.43;;
69621;SDS011;56841;55.964;37.674;2023-07-08T02:01:23;20.00;;;10.90;;
69621;SDS011;56841;55.964;37.674;2023-07-08T02:03:49;20.05;;;11.82;;
69621;SDS011;56841;55.964;37.674;2023-07-08T02:06:15;18.67;;;10.63;;
69621;SDS011;56841;55.964;37.674;2023-07-08T02:08:40;17.50;;;8.77;;
69621;SDS011;56841;55.964;37.674;2023-07-08T02:11:06;18.17;;;9.48;;
69621;SDS011;56841;55.964;37.674;2023-07-08T02:13:32;19.23;;;10.80;;
69621;SDS011;56841;55.964;37.674;2023-07-08T02:15:57;18.85;;;11.63;;
69621;SDS011;56841;55.964;37.674;2023-07-08T02:18:24;19.33;;;10.15;;
69621;SDS011;56841;55.964;37.674;2023-07-08T02:20:50;18.98;;;11.27;;
69621;SDS011;56841;55.964;37.674;2023-07-08T02:23:16;21.15;;;11.82;;
69621;SDS011;56841;55.964;37.674;2023-07-08T02:25:49;20.00;;;11.52;;
69621;SDS011;56841;55.964;37.674;2023-07-08T02:28:17;17.42;;;10.55;;
69621;SDS011;56841;55.964;37.674;2023-07-08T02:30:43;19.65;;;11.85;;
69621;SDS011;56841;55.964;37.674;2023-07-08T02:33:12;20.00;;;10.82;;
69621;SDS011;56841;55.964;37.674;2023-07-08T02:35:40;17.92;;;10.00;;
69621;SDS011;56841;55.964;37.674;2023-07-08T02:38:05;17.38;;;10.57;;
69621;SDS011;56841;55.964;37.674;2023-07-08T02:40:31;18.60;;;11.30;;
69621;SDS011;56841;55.964;37.674;2023-07-08T02:42:57;19.52;;;10.60;;
69621;SDS011;56841;55.964;37.674;2023-07-08T02:45:23;17.02;;;11.07;;
69621;SDS011;56841;55.964;37.674;2023-07-08T02:47:49;23.27;;;11.25;;
69621;SDS011;56841;55.964;37.674;2023-07-08T02:50:14;19.88;;;11.77;;
69621;SDS011;56841;55.964;37.674;2023-07-08T02:52:42;20.05;;;11.85;;
69621;SDS011;56841;55.964;37.674;2023-07-08T02:55:08;17.67;;;10.60;;
69621;SDS011;56841;55.964;37.674;2023-07-08T02:57:34;19.63;;;11.52;;
69621;SDS011;56841;55.964;37.674;2023-07-08T03:00:00;18.65;;;11.25;;
69621;SDS011;56841;55.964;37.674;2023-07-08T03:02:26;19.40;;;11.45;;
69621;SDS011;56841;55.964;37.674;2023-07-08T03:04:53;17.15;;;11.35;;
69621;SDS011;56841;55.964;37.674;2023-07-08T03:07:20;18.98;;;11.00;;
69621;SDS011;56841;55.964;37.674;2023-07-08T03:09:45;18.27;;;11.55;;
69621;SDS011;56841;55.964;37.674;2023-07-08T03:12:11;19.35;;;11.93;;
69621;SDS011;56841;55.964;37.674;2023-07-08T03:14:38;21.60;;;11.98;;
69621;SDS011;56841;55.964;37.674;2023-07-08T03:17:04;17.88;;;10.57;;
69621;SDS011;56841;55.964;37.674;2023-07-08T03:19:30;17.60;;;10.98;;
69621;SDS011;56841;55.964;37.674;2023-07-08T03:21:57;18.35;;;10.32;;
69621;SDS011;56841;55.964;37.674;2023-07-08T03:24:24;18.40;;;11.60;;
69621;SDS011;56841;55.964;37.674;2023-07-08T03:26:50;16.00;;;8.98;;
69621;SDS011;56841;55.964;37.674;2023-07-08T03:29:22;17.38;;;11.15;;
69621;SDS011;56841;55.964;37.674;2023-07-08T03:31:47;17.35;;;10.88;;
69621;SDS011;56841;55.964;37.674;2023-07-08T03:34:14;16.00;;;10.00;;
69621;SDS011;56841;55.964;37.674;2023-07-08T03:36:46;19.75;;;11.32;;
69621;SDS011;56841;55.964;37.674;2023-07-08T03:39:19;16.90;;;11.00;;
69621;SDS011;56841;55.964;37.674;2023-07-08T03:41:47;16.55;;;10.60;;
69621;SDS011;56841;55.964;37.674;2023-07-08T03:44:14;15.35;;;10.32;;
69621;SDS011;56841;55.964;37.674;2023-07-08T03:46:44;16.98;;;10.35;;
69621;SDS011;56841;55.964;37.674;2023-07-08T03:49:13;17.17;;;10.18;;
69621;SDS011;56841;55.964;37.674;2023-07-08T03:51:39;17.60;;;10.10;;
69621;SDS011;56841;55.964;37.674;2023-07-08T03:54:08;16.63;;;10.02;;
69621;SDS011;56841;55.964;37.674;2023-07-08T03:56:38;15.20;;;9.50;;
69621;SDS011;56841;55.964;37.674;2023-07-08T03:59:04;14.30;;;9.77;;
69621;SDS011;56841;55.964;37.674;2023-07-08T04:01:31;16.38;;;10.60;;
69621;SDS011;56841;55.964;37.674;2023-07-08T04:03:58;15.73;;;9.93;;
69621;SDS011;56841;55.964;37.674;2023-07-08T04:06:25;16.67;;;9.45;;
69621;SDS011;56841;55.964;37.674;2023-07-08T04:08:53;14.80;;;9.52;;
69621;SDS011;56841;55.964;37.674;2023-07-08T04:11:20;15.65;;;9.52;;
69621;SDS011;56841;55.964;37.674;2023-07-08T04:13:48;14.93;;;9.48;;
69621;SDS011;56841;55.964;37.674;2023-07-08T04:16:22;16.30;;;9.45;;
69621;SDS011;56841;55.964;37.674;2023-07-08T04:18:55;14.65;;;9.02;;
69621;SDS011;56841;55.964;37.674;2023-07-08T04:21:22;16.60;;;8.77;;
69621;SDS011;56841;55.964;37.674;2023-07-08T04:23:51;15.00;;;8.73;;
69621;SDS011;56841;55.964;37.674;2023-07-08T04:26:17;14.00;;;8.75;;
69621;SDS011;56841;55.964;37.674;2023-07-08T04:28:44;14.57;;;9.57;;
69621;SDS011;56841;55.964;37.674;2023-07-08T04:31:10;14.05;;;9.07;;
69621;SDS011;56841;55.964;37.674;2023-07-08T04:33:36;14.27;;;8.43;;
69621;SDS011;56841;55.964;37.674;2023-07-08T04:36:02;15.93;;;9.45;;
69621;SDS011;56841;55.964;37.674;2023-07-08T04:38:28;14.27;;;9.13;;
69621;SDS011;56841;55.964;37.674;2023-07-08T04:40:54;13.43;;;8.52;;
69621;SDS011;56841;55.964;37.674;2023-07-08T04:43:22;15.35;;;9.02;;
69621;SDS011;56841;55.964;37.674;2023-07-08T04:45:49;11.90;;;7.22;;
69621;SDS011;56841;55.964;37.674;2023-07-08T04:48:17;13.57;;;9.07;;
69621;SDS011;56841;55.964;37.674;2023-07-08T04:50:50;13.45;;;8.88;;
69621;SDS011;56841;55.964;37.674;2023-07-08T04:53:16;13.90;;;7.95;;
69621;SDS011;56841;55.964;37.674;2023-07-08T04:55:53;10.73;;;6.65;;
69621;SDS011;56841;55.964;37.674;2023-07-08T04:58:21;10.82;;;6.38;;
69621;SDS011;56841;55.964;37.674;2023-07-08T05:00:46;12.13;;;7.57;;
69621;SDS011;56841;55.964;37.674;2023-07-08T05:03:12;13.85;;;8.23;;
69621;SDS011;56841;55.964;37.674;2023-07-08T05:05:38;10.70;;;7.20;;
69621;SDS011;56841;55.964;37.674;2023-07-08T05:08:04;10.20;;;6.30;;
69621;SDS011;56841;55.964;37.674;2023-07-08T05:10:30;12.60;;;8.00;;
69621;SDS011;56841;55.964;37.674;2023-07-08T05:12:55;11.10;;;6.88;;
69621;SDS011;56841;55.964;37.674;2023-07-08T05:15:21;10.65;;;7.03;;
69621;SDS011;56841;55.964;37.674;2023-07-08T05:17:47;12.15;;;7.00;;
69621;SDS011;56841;55.964;37.674;2023-07-08T05:20:15;13.57;;;7.80;;
69621;SDS011;56841;55.964;37.674;2023-07-08T05:22:44;12.75;;;6.93;;
69621;SDS011;56841;55.964;37.674;2023-07-08T05:25:10;11.57;;;7.57;;
69621;SDS011;56841;55.964;37.674;2023-07-08T05:27:37;10.45;;;7.78;;
69621;SDS011;56841;55.964;37.674;2023-07-08T05:30:03;12.02;;;7.85;;
69621;SDS011;56841;55.964;37.674;2023-07-08T05:32:33;11.20;;;7.63;;
69621;SDS011;56841;55.964;37.674;2023-07-08T05:34:59;12.45;;;7.55;;
69621;SDS011;56841;55.964;37.674;2023-07-08T05:37:25;13.15;;;8.02;;
69621;SDS011;56841;55.964;37.674;2023-07-08T05:39:54;11.50;;;7.75;;
69621;SDS011;56841;55.964;37.674;2023-07-08T05:42:21;13.90;;;8.15;;
69621;SDS011;56841;55.964;37.674;2023-07-08T05:44:47;12.32;;;6.78;;
69621;SDS011;56841;55.964;37.674;2023-07-08T05:47:14;11.63;;;7.68;;
69621;SDS011;56841;55.964;37.674;2023-07-08T05:49:41;11.52;;;8.02;;
69621;SDS011;56841;55.964;37.674;2023-07-08T05:52:07;11.70;;;7.97;;
69621;SDS011;56841;55.964;37.674;2023-07-08T05:54:37;10.80;;;7.47;;
69621;SDS011;56841;55.964;37.674;2023-07-08T05:57:09;11.70;;;7.38;;
69621;SDS011;56841;55.964;37.674;2023-07-08T05:59:36;12.88;;;7.50;;
69621;SDS011;56841;55.964;37.674;2023-07-08T06:02:09;10.43;;;7.50;;
69621;SDS011;56841;55.964;37.674;2023-07-08T06:04:36;11.90;;;7.20;;
69621;SDS011;56841;55.964;37.674;2023-07-08T06:07:01;13.82;;;8.27;;
69621;SDS011;56841;55.964;37.674;2023-07-08T06:09:27;11.07;;;7.10;;
69621;SDS011;56841;55.964;37.674;2023-07-08T06:11:53;12.27;;;7.28;;
69621;SDS011;56841;55.964;37.674;2023-07-08T06:14:19;10.30;;;7.18;;
69621;SDS011;56841;55.964;37.674;2023-07-08T06:16:44;11.18;;;7.70;;
69621;SDS011;56841;55.964;37.674;2023-07-08T06:19:10;10.13;;;7.57;;
69621;SDS011;56841;55.964;37.674;2023-07-08T06:21:36;10.95;;;6.88;;
69621;SDS011;56841;55.964;37.674;2023-07-08T06:24:02;11.48;;;7.63;;
69621;SDS011;56841;55.964;37.674;2023-07-08T06:26:28;12.82;;;7.20;;
69621;SDS011;56841;55.964;37.674;2023-07-08T06:28:54;11.00;;;6.70;;
69621;SDS011;56841;55.964;37.674;2023-07-08T06:31:19;10.40;;;6.50;;
69621;SDS011;56841;55.964;37.674;2023-07-08T06:33:46;11.23;;;7.30;;
69621;SDS011;56841;55.964;37.674;2023-07-08T06:36:12;10.43;;;6.88;;
69621;SDS011;56841;55.964;37.674;2023-07-08T06:38:37;11.57;;;6.57;;
69621;SDS011;56841;55.964;37.674;2023-07-08T06:41:03;9.02;;;6.65;;
69621;SDS011;56841;55.964;37.674;2023-07-08T06:43:29;11.23;;;6.78;;
69621;SDS011;56841;55.964;37.674;2023-07-08T06:46:00;10.85;;;6.10;;
69621;SDS011;56841;55.964;37.674;2023-07-08T06:48:26;9.45;;;6.50;;
69621;SDS011;56841;55.964;37.674;2023-07-08T06:50:52;9.95;;;6.28;;
69621;SDS011;56841;55.964;37.674;2023-07-08T06:53:18;9.50;;;6.47;;
69621;SDS011;56841;55.964;37.674;2023-07-08T06:55:44;10.38;;;6.47;;
69621;SDS011;56841;55.964;37.674;2023-07-08T06:58:10;10.35;;;6.53;;
69621;SDS011;56841;55.964;37.674;2023-07-08T07:00:37;9.90;;;5.75;;
69621;SDS011;56841;55.964;37.674;2023-07-08T07:03:03;9.35;;;6.10;;
69621;SDS011;56841;55.964;37.674;2023-07-08T07:05:29;8.95;;;6.45;;
69621;SDS011;56841;55.964;37.674;2023-07-08T07:07:55;8.55;;;6.30;;
69621;SDS011;56841;55.964;37.674;2023-07-08T07:10:21;8.80;;;6.10;;
69621;SDS011;56841;55.964;37.674;2023-07-08T07:12:47;9.95;;;6.03;;
69621;SDS011;56841;55.964;37.674;2023-07-08T07:15:13;11.02;;;6.95;;
69621;SDS011;56841;55.964;37.674;2023-07-08T07:17:39;8.73;;;6.00;;
69621;SDS011;56841;55.964;37.674;2023-07-08T07:20:05;9.48;;;6.28;;
69621;SDS011;56841;55.964;37.674;2023-07-08T07:22:31;9.35;;;5.93;;
69621;SDS011;56841;55.964;37.674;2023-07-08T07:24:58;9.23;;;6.30;;
69621;SDS011;56841;55.964;37.674;2023-07-08T07:27:24;9.40;;;5.38;;
69621;SDS011;56841;55.964;37.674;2023-07-08T07:29:50;9.48;;;5.70;;
69621;SDS011;56841;55.964;37.674;2023-07-08T07:32:17;8.75;;;4.75;;
69621;SDS011;56841;55.964;37.674;2023-07-08T07:34:47;10.18;;;5.57;;
69621;SDS011;56841;55.964;37.674;2023-07-08T07:37:15;9.20;;;5.32;;
69621;SDS011;56841;55.964;37.674;2023-07-08T07:39:42;10.02;;;6.18;;
69621;SDS011;56841;55.964;37.674;2023-07-08T07:42:09;9.00;;;6.20;;
69621;SDS011;56841;55.964;37.674;2023-07-08T07:44:36;9.15;;;5.65;;
69621;SDS011;56841;55.964;37.674;2023-07-08T07:47:02;9.82;;;6.05;;
69621;SDS011;56841;55.964;37.674;2023-07-08T07:49:28;12.07;;;6.55;;
69621;SDS011;56841;55.964;37.674;2023-07-08T07:51:54;11.15;;;6.18;;
69621;SDS011;56841;55.964;37.674;2023-07-08T07:54:21;10.07;;;6.13;;
69621;SDS011;56841;55.964;37.674;2023-07-08T07:56:46;10.52;;;6.60;;
69621;SDS011;56841;55.964;37.674;2023-07-08T07:59:12;10.10;;;6.45;;
69621;SDS011;56841;55.964;37.674;2023-07-08T08:01:38;11.13;;;6.25;;
69621;SDS011;56841;55.964;37.674;2023-07-08T08:04:04;9.25;;;6.15;;
69621;SDS011;56841;55.964;37.674;2023-07-08T08:06:30;8.98;;;6.00;;
69621;SDS011;56841;55.964;37.674;2023-07-08T08:08:56;10.15;;;6.68;;
69621;SDS011;56841;55.964;37.674;2023-07-08T08:11:23;9.60;;;6.50;;
69621;SDS011;56841;55.964;37.674;2023-07-08T08:13:51;11.88;;;6.57;;
69621;SDS011;56841;55.964;37.674;2023-07-08T08:16:17;8.57;;;5.95;;
69621;SDS011;56841;55.964;37.674;2023-07-08T08:18:43;8.95;;;6.05;;
69621;SDS011;56841;55.964;37.674;2023-07-08T08:21:09;10.65;;;6.38;;
69621;SDS011;56841;55.964;37.674;2023-07-08T08:23:34;9.77;;;6.18;;
69621;SDS011;56841;55.964;37.674;2023-07-08T08:26:01;10.32;;;5.63;;
69621;SDS011;56841;55.964;37.674;2023-07-08T08:28:27;7.88;;;5.20;;
69621;SDS011;56841;55.964;37.674;2023-07-08T08:30:53;7.80;;;5.05;;
69621;SDS011;56841;55.964;37.674;2023-07-08T08:33:19;9.50;;;5.63;;
69621;SDS011;56841;55.964;37.674;2023-07-08T08:35:45;8.40;;;5.68;;
69621;SDS011;56841;55.964;37.674;2023-07-08T08:38:11;9.35;;;5.57;;
69621;SDS011;56841;55.964;37.674;2023-07-08T08:40:37;10.02;;;5.63;;
69621;SDS011;56841;55.964;37.674;2023-07-08T08:43:13;9.82;;;5.95;;
69621;SDS011;56841;55.964;37.674;2023-07-08T08:48:32;9.50;;;6.60;;
69621;SDS011;56841;55.964;37.674;2023-07-08T08:51:08;15.27;;;9.07;;
69621;SDS011;56841;55.964;37.674;2023-07-08T08:53:37;10.77;;;7.13;;
69621;SDS011;56841;55.964;37.674;2023-07-08T08:56:05;10.77;;;6.82;;
69621;SDS011;56841;55.964;37.674;2023-07-08T08:58:42;8.35;;;5.47;;
69621;SDS011;56841;55.964;37.674;2023-07-08T09:01:12;8.82;;;5.05;;
69621;SDS011;56841;55.964;37.674;2023-07-08T09:06:09;9.88;;;6.35;;
69621;SDS011;56841;55.964;37.674;2023-07-08T09:08:37;7.25;;;4.70;;
69621;SDS011;56841;55.964;37.674;2023-07-08T09:11:09;9.50;;;5.85;;
69621;SDS011;56841;55.964;37.674;2023-07-08T09:13:36;7.05;;;5.03;;
69621;SDS011;56841;55.964;37.674;2023-07-08T09:21:48;9.07;;;5.55;;
69621;SDS011;56841;55.964;37.674;2023-07-08T09:24:20;9.68;;;6.07;;
69621;SDS011;56841;55.964;37.674;2023-07-08T09:26:53;8.65;;;5.35;;
69621;SDS011;56841;55.964;37.674;2023-07-08T09:29:22;8.90;;;5.40;;
69621;SDS011;56841;55.964;37.674;2023-07-08T09:31:48;9.07;;;5.30;;
69621;SDS011;56841;55.964;37.674;2023-07-08T09:34:15;8.02;;;5.53;;
69621;SDS011;56841;55.964;37.674;2023-07-08T09:36:47;6.40;;;4.68;;
69621;SDS011;56841;55.964;37.674;2023-07-08T09:39:18;7.60;;;4.80;;
69621;SDS011;56841;55.964;37.674;2023-07-08T09:41:47;6.18;;;4.90;;
69621;SDS011;56841;55.964;37.674;2023-07-08T09:51:46;6.45;;;3.78;;
69621;SDS011;56841;55.964;37.674;2023-07-08T09:54:12;7.88;;;4.25;;
69621;SDS011;56841;55.964;37.674;2023-07-08T09:56:40;7.28;;;3.70;;
69621;SDS011;56841;55.964;37.674;2023-07-08T09:59:12;5.07;;;3.40;;
69621;SDS011;56841;55.964;37.674;2023-07-08T10:01:40;5.47;;;3.95;;
69621;SDS011;56841;55.964;37.674;2023-07-08T10:04:07;7.28;;;4.30;;
69621;SDS011;56841;55.964;37.674;2023-07-08T10:06:34;7.65;;;4.60;;
69621;SDS011;56841;55.964;37.674;2023-07-08T10:09:02;6.03;;;3.60;;
69621;SDS011;56841;55.964;37.674;2023-07-08T10:13:59;4.55;;;3.10;;
69621;SDS011;56841;55.964;37.674;2023-07-08T10:16:30;5.93;;;3.00;;
69621;SDS011;56841;55.964;37.674;2023-07-08T10:18:57;6.18;;;3.42;;
69621;SDS011;56841;55.964;37.674;2023-07-08T10:26:46;4.47;;;3.13;;
69621;SDS011;56841;55.964;37.674;2023-07-08T10:35:19;7.70;;;3.78;;
69621;SDS011;56841;55.964;37.674;2023-07-08T10:40:46;4.80;;;3.38;;
69621;SDS011;56841;55.964;37.674;2023-07-08T10:46:09;4.60;;;3.30;;
69621;SDS011;56841;55.964;37.674;2023-07-08T11:05:39;9.68;;;5.82;;
69621;SDS011;56841;55.964;37.674;2023-07-08T11:13:59;6.20;;;3.50;;
69621;SDS011;56841;55.964;37.674;2023-07-08T11:17:19;3.97;;;3.00;;
69621;SDS011;56841;55.964;37.674;2023-07-08T11:19:47;4.80;;;2.63;;
69621;SDS011;56841;55.964;37.674;2023-07-08T11:22:18;7.05;;;4.10;;
69621;SDS011;56841;55.964;37.674;2023-07-08T11:24:47;7.57;;;4.40;;
69621;SDS011;56841;55.964;37.674;2023-07-08T11:27:23;5.95;;;3.90;;
69621;SDS011;56841;55.964;37.674;2023-07-08T11:29:57;5.65;;;3.30;;
69621;SDS011;56841;55.964;37.674;2023-07-08T11:32:31;5.30;;;3.35;;
69621;SDS011;56841;55.964;37.674;2023-07-08T11:35:00;5.55;;;4.22;;
69621;SDS011;56841;55.964;37.674;2023-07-08T11:37:29;3.88;;;3.00;;
69621;SDS011;56841;55.964;37.674;2023-07-08T11:42:53;6.03;;;3.78;;
69621;SDS011;56841;55.964;37.674;2023-07-08T11:45:32;4.60;;;3.40;;
69621;SDS011;56841;55.964;37.674;2023-07-08T11:48:03;7.10;;;3.85;;
69621;SDS011;56841;55.964;37.674;2023-07-08T11:50:42;6.93;;;4.95;;
69621;SDS011;56841;55.964;37.674;2023-07-08T11:53:12;5.82;;;4.05;;
69621;SDS011;56841;55.964;37.674;2023-07-08T11:55:59;5.28;;;3.30;;
69621;SDS011;56841;55.964;37.674;2023-07-08T11:58:27;4.57;;;3.25;;
69621;SDS011;56841;55.964;37.674;2023-07-08T12:01:04;6.07;;;3.30;;
69621;SDS011;56841;55.964;37.674;2023-07-08T12:03:50;4.63;;;3.20;;
69621;SDS011;56841;55.964;37.674;2023-07-08T12:08:52;6.45;;;3.30;;
69621;SDS011;56841;55.964;37.674;2023-07-08T12:11:24;4.50;;;3.22;;
69621;SDS011;56841;55.964;37.674;2023-07-08T12:13:57;5.53;;;3.50;;
69621;SDS011;56841;55.964;37.674;2023-07-08T12:16:25;5.25;;;3.42;;
69621;SDS011;56841;55.964;37.674;2023-07-08T12:18:53;6.57;;;3.83;;
69621;SDS011;56841;55.964;37.674;2023-07-08T12:21:22;5.60;;;3.70;;
69621;SDS011;56841;55.964;37.674;2023-07-08T12:23:51;5.55;;;3.38;;
69621;SDS011;56841;55.964;37.674;2023-07-08T12:26:18;5.70;;;3.33;;
69621;SDS011;56841;55.964;37.674;2023-07-08T12:28:44;4.85;;;3.30;;
69621;SDS011;56841;55.964;37.674;2023-07-08T12:31:15;6.70;;;3.42;;
69621;SDS011;56841;55.964;37.674;2023-07-08T12:33:45;5.65;;;3.60;;
69621;SDS011;56841;55.964;37.674;2023-07-08T12:36:22;6.30;;;3.58;;
69621;SDS011;56841;55.964;37.674;2023-07-08T12:38:52;5.13;;;3.33;;
69621;SDS011;56841;55.964;37.674;2023-07-08T12:41:21;5.28;;;3.58;;
69621;SDS011;56841;55.964;37.674;2023-07-08T12:43:52;5.93;;;3.30;;
69621;SDS011;56841;55.964;37.674;2023-07-08T12:46:19;4.07;;;3.00;;
69621;SDS011;56841;55.964;37.674;2023-07-08T12:48:46;4.50;;;3.28;;
69621;SDS011;56841;55.964;37.674;2023-07-08T12:51:17;5.22;;;3.20;;
69621;SDS011;56841;55.964;37.674;2023-07-08T12:53:48;5.63;;;3.50;;
69621;SDS011;56841;55.964;37.674;2023-07-08T12:56:15;4.75;;;3.17;;
69621;SDS011;56841;55.964;37.674;2023-07-08T12:58:44;7.68;;;4.57;;
69621;SDS011;56841;55.964;37.674;2023-07-08T13:01:19;6.30;;;4.05;;
69621;SDS011;56841;55.964;37.674;2023-07-08T13:03:53;5.30;;;3.70;;
69621;SDS011;56841;55.964;37.674;2023-07-08T13:06:24;10.13;;;6.03;;
69621;SDS011;56841;55.964;37.674;2023-07-08T13:08:53;4.75;;;3.47;;
69621;SDS011;56841;55.964;37.674;2023-07-08T13:11:22;5.18;;;3.10;;
69621;SDS011;56841;55.964;37.674;2023-07-08T13:13:58;5.10;;;3.90;;
69621;SDS011;56841;55.964;37.674;2023-07-08T13:16:29;12.48;;;4.20;;
69621;SDS011;56841;55.964;37.674;2023-07-08T13:18:57;6.95;;;2.70;;
69621;SDS011;56841;55.964;37.674;2023-07-08T13:21:23;5.72;;;2.83;;
69621;SDS011;56841;55.964;37.674;2023-07-08T13:23:50;5.20;;;2.72;;
69621;SDS011;56841;55.964;37.674;2023-07-08T13:26:22;4.10;;;3.13;;
69621;SDS011;56841;55.964;37.674;2023-07-08T13:28:50;6.78;;;2.95;;
69621;SDS011;56841;55.964;37.674;2023-07-08T13:31:24;6.38;;;4.82;;
69621;SDS011;56841;55.964;37.674;2023-07-08T13:34:02;7.05;;;3.20;;
69621;SDS011;56841;55.964;37.674;2023-07-08T13:36:33;4.85;;;3.03;;
69621;SDS011;56841;55.964;37.674;2023-07-08T13:39:02;5.30;;;2.72;;
69621;SDS011;56841;55.964;37.674;2023-07-08T13:41:34;7.25;;;3.10;;
69621;SDS011;56841;55.964;37.674;2023-07-08T13:44:07;7.22;;;2.70;;
69621;SDS011;56841;55.964;37.674;2023-07-08T13:46:36;8.55;;;4.03;;
69621;SDS011;56841;55.964;37.674;2023-07-08T13:49:09;5.43;;;3.67;;
69621;SDS011;56841;55.964;37.674;2023-07-08T13:51:37;6.57;;;2.50;;
69621;SDS011;56841;55.964;37.674;2023-07-08T13:54:24;5.38;;;2.75;;
69621;SDS011;56841;55.964;37.674;2023-07-08T13:56:52;5.30;;;2.70;;
69621;SDS011;56841;55.964;37.674;2023-07-08T13:59:21;5.90;;;2.45;;
69621;SDS011;56841;55.964;37.674;2023-07-08T14:01:49;4.47;;;2.25;;
69621;SDS011;56841;55.964;37.674;2023-07-08T14:04:19;3.85;;;2.20;;
69621;SDS011;56841;55.964;37.674;2023-07-08T14:06:48;7.45;;;3.67;;
69621;SDS011;56841;55.964;37.674;2023-07-08T14:11:44;5.65;;;2.60;;
69621;SDS011;56841;55.964;37.674;2023-07-08T14:14:11;4.78;;;2.65;;
69621;SDS011;56841;55.964;37.674;2023-07-08T14:16:38;4.30;;;2.35;;
69621;SDS011;56841;55.964;37.674;2023-07-08T14:19:11;6.68;;;3.72;;
69621;SDS011;56841;55.964;37.674;2023-07-08T14:21:42;6.32;;;4.03;;
69621;SDS011;56841;55.964;37.674;2023-07-08T14:24:12;4.85;;;2.65;;
69621;SDS011;56841;55.964;37.674;2023-07-08T14:26:41;3.72;;;2.70;;
69621;SDS011;56841;55.964;37.674;2023-07-08T14:29:08;7.30;;;2.38;;
69621;SDS011;56841;55.964;37.674;2023-07-08T14:31:33;5.20;;;2.60;;
69621;SDS011;56841;55.964;37.674;2023-07-08T14:34:05;4.20;;;2.50;;
69621;SDS011;56841;55.964;37.674;2023-07-08T14:36:33;5.90;;;2.80;;
69621;SDS011;56841;55.964;37.674;2023-07-08T14:39:00;6.10;;;2.40;;
69621;SDS011;56841;55.964;37.674;2023-07-08T14:41:26;9.27;;;5.30;;
69621;SDS011;56841;55.964;37.674;2023-07-08T14:43:53;5.93;;;4.40;;
69621;SDS011;56841;55.964;37.674;2023-07-08T14:46:20;7.75;;;5.63;;
69621;SDS011;56841;55.964;37.674;2023-07-08T14:48:46;5.50;;;3.30;;
69621;SDS011;56841;55.964;37.674;2023-07-08T14:51:11;4.75;;;2.92;;
69621;SDS011;56841;55.964;37.674;2023-07-08T14:53:37;4.57;;;2.60;;
69621;SDS011;56841;55.964;37.674;2023-07-08T14:56:12;5.45;;;2.70;;
69621;SDS011;56841;55.964;37.674;2023-07-08T14:58:42;5.80;;;3.25;;
69621;SDS011;56841;55.964;37.674;2023-07-08T15:01:21;4.43;;;3.05;;
69621;SDS011;56841;55.964;37.674;2023-07-08T15:03:49;5.97;;;3.65;;
69621;SDS011;56841;55.964;37.674;2023-07-08T15:06:15;7.00;;;2.80;;
69621;SDS011;56841;55.964;37.674;2023-07-08T15:08:41;6.82;;;3.60;;
69621;SDS011;56841;55.964;37.674;2023-07-08T15:11:08;5.63;;;3.35;;
69621;SDS011;56841;55.964;37.674;2023-07-08T15:13:36;4.40;;;2.95;;
69621;SDS011;56841;55.964;37.674;2023-07-08T15:16:02;5.00;;;3.40;;
69621;SDS011;56841;55.964;37.674;2023-07-08T15:18:28;6.40;;;4.10;;
69621;SDS011;56841;55.964;37.674;2023-07-08T15:20:54;7.13;;;4.15;;
69621;SDS011;56841;55.964;37.674;2023-07-08T15:23:20;4.78;;;2.63;;
69621;SDS011;56841;55.964;37.674;2023-07-08T15:25:46;6.00;;;3.10;;
69621;SDS011;56841;55.964;37.674;2023-07-08T15:28:32;6.35;;;3.10;;
69621;SDS011;56841;55.964;37.674;2023-07-08T15:31:10;6.55;;;3.10;;
69621;SDS011;56841;55.964;37.674;2023-07-08T15:33:36;4.90;;;3.10;;
69621;SDS011;56841;55.964;37.674;2023-07-08T15:36:02;5.03;;;3.17;;
69621;SDS011;56841;55.964;37.674;2023-07-08T15:38:28;5.85;;;2.90;;
69621;SDS011;56841;55.964;37.674;2023-07-08T15:40:53;4.53;;;2.70;;
69621;SDS011;56841;55.964;37.674;2023-07-08T15:43:19;4.40;;;2.53;;
69621;SDS011;56841;55.964;37.674;2023-07-08T15:45:45;5.88;;;2.80;;
69621;SDS011;56841;55.964;37.674;2023-07-08T15:48:15;6.82;;;2.72;;
69621;SDS011;56841;55.964;37.674;2023-07-08T15:50:42;5.32;;;2.70;;
69621;SDS011;56841;55.964;37.674;2023-07-08T15:53:08;5.90;;;2.80;;
69621;SDS011;56841;55.964;37.674;2023-07-08T15:55:36;5.03;;;2.72;;
69621;SDS011;56841;55.964;37.674;2023-07-08T16:00:37;5.88;;;3.10;;
69621;SDS011;56841;55.964;37.674;2023-07-08T16:03:06;5.07;;;3.15;;
69621;SDS011;56841;55.964;37.674;2023-07-08T16:05:38;5.00;;;3.30;;
69621;SDS011;56841;55.964;37.674;2023-07-08T16:08:03;8.07;;;3.70;;